LEGR Airport Information

Runway Information
Runway 09 Length 9514 ft width 148 ft
Elevation 1842 ft Threshold 0 ft Heading 90
Runway 27 Length 9514 ft Width 148 ft
Elevation 1860 ft Threshold 0 ft Heading 270
Airport Frequencies
Type GND Name GND Frequency 121.7 MHZ
Type TWR Name TWR Frequency 118.85 MHZ
Airport Navaids
Type VOR-DME Name Granada Frequency 113400 KHZ
Airport Weather Information & NOTAM
ADDS - METARS form results

(1609 UTC 20 October 2021)
Data provider http://aviationweather.gov/metar/data/
 
METAR text: LEGR 201600Z 25003KT 190V280 CAVOK 28/06 Q1021
Conditions at: LEGR (GRANADA AIRPORT , ES) observed 1600 UTC 20 October 2021
Temperature: 28.0°C (82°F)
Dewpoint: 6.0°C (43°F) [RH = 25%]
Pressure (altimeter): 30.15 inches Hg (1021.0 mb)
Winds: from the WSW (250 degrees) at 3 MPH (3 knots; 1.5 m/s)
Visibility: 6 or more miles (10+ km)
Ceiling: ceiling and visibility are OK
Clouds: unknown
Weather: no significant weather observed at this time

METAR text: LEGR 201530Z VRB02KT CAVOK 28/07 Q1021
Conditions at: LEGR (GRANADA AIRPORT , ES) observed 1530 UTC 20 October 2021
Temperature: 28.0°C (82°F)
Dewpoint: 7.0°C (45°F) [RH = 27%]
Pressure (altimeter): 30.15 inches Hg (1021.0 mb)
Winds: variable direction winds at 2 MPH (2 knots; 1.0 m/s)
Visibility: 6 or more miles (10+ km)
Ceiling: ceiling and visibility are OK
Clouds: unknown
Weather: no significant weather observed at this time

Forecast for: LEGR (GRANADA AIRPORT , ES)
Text: TAF LEGR 201100Z 2012/2112 VRB02KT CAVOK TX30/2015Z TN09/2106Z
Forecast period: 1200 UTC 20 October 2021 to 1200 UTC 21 October 2021
Forecast type: FROM: standard forecast or significant change
Winds: variable direction winds at 2 MPH (2 knots; 1.0 m/s)
Visibility: 6 or more miles (10+ km)
Ceiling: unknown
Clouds: missing
Weather: no significant weather forecast for this period